createdAt,value
2019-04-10T00:04:25.858Z,7.51
2019-04-10T00:09:27.555Z,7.44
2019-04-10T00:14:29.308Z,7.32
2019-04-10T00:19:31.103Z,7.25
2019-04-10T00:24:32.731Z,7.19
2019-04-10T00:29:34.539Z,7.06
2019-04-10T00:34:36.092Z,6.94
2019-04-10T00:39:37.742Z,6.92
2019-04-10T00:44:39.691Z,6.85
2019-04-10T00:49:41.955Z,6.77
2019-04-10T00:54:43.707Z,6.75
2019-04-10T00:59:45.285Z,6.65
2019-04-10T01:04:46.811Z,6.56
2019-04-10T01:09:48.716Z,6.46
2019-04-10T01:14:52.196Z,6.42
2019-04-10T01:19:54.405Z,6.36
2019-04-10T01:24:56.033Z,6.26
2019-04-10T01:29:58.010Z,6.24
2019-04-10T01:35:00.236Z,6.17
2019-04-10T01:40:04.611Z,6.08
2019-04-10T01:45:06.911Z,6.01
2019-04-10T01:50:10.481Z,5.89
2019-04-10T01:55:21.112Z,5.87
2019-04-10T02:00:17.738Z,5.84
2019-04-10T02:05:20.655Z,5.71
2019-04-10T02:10:23.771Z,5.72
2019-04-10T02:15:26.015Z,5.65
2019-04-10T02:20:27.715Z,5.63
2019-04-10T02:25:29.262Z,5.55
2019-04-10T02:30:32.444Z,5.55
2019-04-10T02:35:36.044Z,5.45
2019-04-10T02:40:39.212Z,5.41
2019-04-10T02:45:42.505Z,5.43
2019-04-10T02:50:44.965Z,5.39
2019-04-10T02:55:47.474Z,5.38
2019-04-10T03:00:52.062Z,5.34
2019-04-10T03:05:54.183Z,5.28
2019-04-10T03:11:01.686Z,5.18
2019-04-10T03:16:00.062Z,5.12
2019-04-10T03:21:02.749Z,5.09
2019-04-10T03:26:05.517Z,5.06
2019-04-10T03:31:07.972Z,4.96
2019-04-10T03:36:09.891Z,4.87
2019-04-10T03:41:12.259Z,4.79
2019-04-10T03:46:14.088Z,4.76
2019-04-10T03:51:16.556Z,4.73
2019-04-10T03:56:18.573Z,4.68
2019-04-10T04:01:20.168Z,4.65
2019-04-10T04:06:21.808Z,4.60
2019-04-10T04:11:23.848Z,4.57
2019-04-10T04:16:25.548Z,4.56
2019-04-10T04:21:27.861Z,4.57
2019-04-10T04:26:29.655Z,4.54
2019-04-10T04:31:31.410Z,4.54
2019-04-10T04:36:33.069Z,4.55
2019-04-10T04:41:34.577Z,4.53
2019-04-10T04:46:36.551Z,4.56
2019-04-10T04:51:38.278Z,4.61
2019-04-10T04:56:40.075Z,4.68
2019-04-10T05:01:42.519Z,4.70
2019-04-10T05:06:44.231Z,4.73
2019-04-10T05:11:46.860Z,4.77
2019-04-10T05:16:48.640Z,4.84
2019-04-10T05:21:50.445Z,4.92
2019-04-10T05:26:52.002Z,5.05
2019-04-10T05:31:54.564Z,5.15
2019-04-10T05:36:56.852Z,5.26
2019-04-10T05:42:00.689Z,5.27
2019-04-10T05:47:01.946Z,5.33
2019-04-10T05:52:04.194Z,5.45
2019-04-10T05:57:06.180Z,5.61
2019-04-10T06:02:08.053Z,5.67
2019-04-10T06:07:10.702Z,5.71
2019-04-10T06:12:12.382Z,5.94
2019-04-10T06:17:14.163Z,6.25
2019-04-10T06:22:16.693Z,6.50
2019-04-10T06:27:18.537Z,6.29
2019-04-10T06:32:21.283Z,6.21
2019-04-10T06:37:24.086Z,6.27
2019-04-10T06:42:26.578Z,6.64
2019-04-10T06:47:28.659Z,6.90
2019-04-10T06:52:30.679Z,7.15
2019-04-10T06:57:36.201Z,7.35
2019-04-10T07:02:37.083Z,7.35
2019-04-10T07:07:47.525Z,7.48
2019-04-10T07:12:43.721Z,7.43
2019-04-10T07:17:45.504Z,7.18
2019-04-10T07:22:48.613Z,7.34
2019-04-10T07:27:52.099Z,7.82
2019-04-10T07:32:55.037Z,7.78
2019-04-10T07:37:58.472Z,7.57
2019-04-10T07:43:00.735Z,7.59
2019-04-10T07:48:02.553Z,7.85
2019-04-10T07:53:06.113Z,8.20
2019-04-10T07:58:07.982Z,8.16
2019-04-10T08:03:09.691Z,8.21
2019-04-10T08:08:11.274Z,8.44
2019-04-10T08:13:13.909Z,8.29
2019-04-10T08:18:15.825Z,8.36
2019-04-10T08:23:17.587Z,8.87
2019-04-10T08:28:19.847Z,9.37
2019-04-10T08:33:21.802Z,9.32
2019-04-10T08:38:24.023Z,9.68
2019-04-10T08:43:26.649Z,9.62
2019-04-10T08:48:30.177Z,9.87
2019-04-10T08:53:31.920Z,10.08
2019-04-10T08:58:33.480Z,10.18
2019-04-10T09:03:35.093Z,10.41
2019-04-10T09:08:37.260Z,10.59
2019-04-10T09:13:41.060Z,10.90
2019-04-10T09:18:43.297Z,10.59
2019-04-10T09:23:51.750Z,10.10
2019-04-10T09:28:52.943Z,9.88
2019-04-10T09:33:56.926Z,9.64
2019-04-10T09:39:01.220Z,9.55
2019-04-10T09:44:05.232Z,9.48
2019-04-10T09:49:07.012Z,9.46
2019-04-10T09:54:10.629Z,9.34
2019-04-10T09:59:13.804Z,9.36
2019-04-10T10:04:15.523Z,9.32
2019-04-10T10:09:22.323Z,9.39
2019-04-10T10:14:24.317Z,9.50
2019-04-10T10:19:25.991Z,9.39
2019-04-10T10:24:28.779Z,9.41
2019-04-10T10:29:30.490Z,9.53
2019-04-10T10:34:32.433Z,9.57
2019-04-10T10:39:34.949Z,9.47
2019-04-10T10:44:36.686Z,9.39
2019-04-10T10:49:38.270Z,9.23
2019-04-10T10:54:41.019Z,9.30
2019-04-10T10:59:43.855Z,9.29
2019-04-10T11:04:47.511Z,9.35
2019-04-10T11:09:50.371Z,9.45
2019-04-10T11:14:52.341Z,9.47
2019-04-10T11:19:55.579Z,9.62
2019-04-10T11:24:57.618Z,9.68
2019-04-10T11:30:01.451Z,9.75
2019-04-10T11:35:06.852Z,9.74
2019-04-10T11:40:09.858Z,9.68
2019-04-10T11:45:14.401Z,9.65
2019-04-10T11:50:18.395Z,9.71
2019-04-10T11:55:25.384Z,9.70
2019-04-10T12:00:47.310Z,9.90
2019-04-10T12:05:44.670Z,10.18
2019-04-10T12:15:50.584Z,10.96
2019-04-10T12:20:52.208Z,11.17
2019-04-10T12:25:53.912Z,11.30
2019-04-10T12:30:55.543Z,11.17
2019-04-10T12:35:58.188Z,11.18
2019-04-10T12:40:59.898Z,11.10
2019-04-10T12:46:02.351Z,11.38
2019-04-10T12:51:05.697Z,11.57
2019-04-10T12:56:11.617Z,11.61
2019-04-10T13:01:16.262Z,11.42
2019-04-10T13:06:18.249Z,11.25
2019-04-10T13:11:20.524Z,11.20
2019-04-10T13:16:22.171Z,11.31
2019-04-10T13:21:23.768Z,11.38
2019-04-10T13:26:26.010Z,11.43
2019-04-10T13:31:27.752Z,11.40
2019-04-10T13:36:29.431Z,11.13
2019-04-10T13:41:32.335Z,10.96
2019-04-10T13:46:35.339Z,10.90
2019-04-10T13:51:37.375Z,10.89
2019-04-10T13:56:39.328Z,10.80
2019-04-10T14:01:41.794Z,10.75
2019-04-10T14:06:44.160Z,10.63
2019-04-10T14:11:45.931Z,10.62
2019-04-10T14:16:48.830Z,10.65
2019-04-10T14:21:51.296Z,10.52
2019-04-10T14:26:55.157Z,10.39
2019-04-10T14:32:01.751Z,10.26
2019-04-10T14:37:05.620Z,10.17
2019-04-10T14:42:07.188Z,10.09
2019-04-10T14:47:08.850Z,10.10
2019-04-10T14:52:10.726Z,10.00
2019-04-10T14:57:12.878Z,9.83
2019-04-10T15:02:16.839Z,9.65
2019-04-10T15:07:18.422Z,9.53
2019-04-10T15:12:20.506Z,9.43
2019-04-10T15:17:23.109Z,9.30
2019-04-10T15:22:27.662Z,9.25
2019-04-10T15:27:29.378Z,9.17
2019-04-10T15:32:31.646Z,9.09
2019-04-10T15:37:33.368Z,9.06
2019-04-10T15:42:37.240Z,9.03
2019-04-10T15:47:49.265Z,9.01
2019-04-10T15:52:43.058Z,9.01
2019-04-10T15:57:52.398Z,8.97
2019-04-10T16:02:49.156Z,8.93
2019-04-10T16:07:51.080Z,8.87
2019-04-10T16:12:55.550Z,8.79
2019-04-10T16:18:14.177Z,8.76
2019-04-10T16:23:18.458Z,8.71
2019-04-10T16:28:20.810Z,8.64
2019-04-10T16:33:23.212Z,8.64
2019-04-10T16:38:25.167Z,8.66
2019-04-10T16:43:27.000Z,8.63
2019-04-10T16:48:31.527Z,8.58
2019-04-10T16:53:34.384Z,8.60
2019-04-10T16:58:36.693Z,8.56
2019-04-10T17:03:38.567Z,8.55
2019-04-10T17:08:40.488Z,8.54
2019-04-10T17:13:42.635Z,8.54
2019-04-10T17:18:45.267Z,8.53
2019-04-10T17:23:47.387Z,8.46
2019-04-10T17:28:50.315Z,8.38
2019-04-10T17:33:54.541Z,8.33
2019-04-10T17:38:55.964Z,8.36
2019-04-10T17:43:58.803Z,8.38
2019-04-10T17:49:03.145Z,8.35
2019-04-10T17:54:06.194Z,8.33
2019-04-10T17:59:08.392Z,8.27
2019-04-10T18:04:10.253Z,8.21
2019-04-10T18:19:17.224Z,8.14
2019-04-10T18:24:19.947Z,8.14
2019-04-10T18:29:21.759Z,8.15
2019-04-10T18:34:23.361Z,8.12
2019-04-10T18:39:26.105Z,8.13
2019-04-10T18:44:31.141Z,8.16
2019-04-10T18:49:33.719Z,8.14
2019-04-10T18:54:36.011Z,8.15
2019-04-10T18:59:46.986Z,8.12
2019-04-10T19:04:57.125Z,8.09
2019-04-10T19:09:59.851Z,8.08
2019-04-10T19:15:01.836Z,8.07
2019-04-10T19:20:09.082Z,8.05
2019-04-10T19:25:12.517Z,8.05
2019-04-10T19:30:19.867Z,8.03
2019-04-10T19:35:21.479Z,8.03
2019-04-10T19:40:23.571Z,8.00
2019-04-10T19:45:25.925Z,8.01
2019-04-10T19:50:27.759Z,7.98
2019-04-10T19:55:29.635Z,8.00
2019-04-10T20:00:33.235Z,8.01
2019-04-10T20:05:34.911Z,8.00
2019-04-10T20:10:37.857Z,7.99
2019-04-10T20:15:39.522Z,7.98
2019-04-10T20:20:41.623Z,7.98
2019-04-10T20:25:43.306Z,7.99
2019-04-10T20:30:45.167Z,7.99
2019-04-10T20:35:46.762Z,7.97
2019-04-10T20:40:48.285Z,7.95
2019-04-10T20:45:50.023Z,7.97
2019-04-10T20:50:52.276Z,7.97
2019-04-10T20:55:54.329Z,7.97
2019-04-10T21:00:56.948Z,7.98
2019-04-10T21:05:58.930Z,7.95
2019-04-10T21:11:03.549Z,7.91
2019-04-10T21:16:05.139Z,7.86
2019-04-10T21:21:06.712Z,7.82
2019-04-10T21:26:08.331Z,7.81
2019-04-10T21:31:22.277Z,7.79
2019-04-10T21:36:24.219Z,7.72
2019-04-10T21:41:25.786Z,7.68
2019-04-10T21:46:28.429Z,7.65
2019-04-10T21:51:31.147Z,7.60
2019-04-10T21:56:33.049Z,7.59
2019-04-10T22:01:34.995Z,7.61
2019-04-10T22:06:39.106Z,7.57
2019-04-10T22:11:43.463Z,7.56
2019-04-10T22:16:46.371Z,7.52
2019-04-10T22:21:48.255Z,7.53
2019-04-10T22:26:50.151Z,7.53
2019-04-10T22:31:51.731Z,7.52
2019-04-10T22:36:53.567Z,7.54
2019-04-10T22:41:55.139Z,7.51
2019-04-10T22:46:56.701Z,7.51
2019-04-10T22:51:58.430Z,7.47
2019-04-10T22:57:00.572Z,7.45
2019-04-10T23:02:09.592Z,7.44
2019-04-10T23:07:06.100Z,7.41
2019-04-10T23:12:07.980Z,7.39
2019-04-10T23:17:10.725Z,7.39
2019-04-10T23:22:13.564Z,7.38
2019-04-10T23:27:15.216Z,7.35
2019-04-10T23:32:17.318Z,7.32
2019-04-10T23:37:19.078Z,7.28
2019-04-10T23:42:21.322Z,7.23
2019-04-10T23:47:24.056Z,7.23
2019-04-10T23:52:25.923Z,7.19
2019-04-10T23:57:27.687Z,7.17
